CYDF/YDF METAR and TAF weather

Enter ICAO airport designator
Station Type Date Time Source
CYDF METAR 2019/09/20 10:00 UTC NOAA

CYDF 201000Z 17005KT 15SM FEW220 07/05 A3001 RMK CI1 CI TR SLP165


Station Type Date Time Source
CYDF Decoded METAR 2019/09/20 10:00 UTC NOAA

Deer Lake, Nfld., Canada (CYDF) 49-13N 057-24W 22M
Sep 20, 2019 - 06:00 AM EDT / 2019.09.20 1000 UTC
Wind: from the S (170 degrees) at 6 MPH (5 KT):0
Visibility: 15 mile(s):0
Sky conditions: mostly clear
Temperature: 44 F (7 C)
Dew Point: 41 F (5 C)
Relative Humidity: 87%
Pressure (altimeter): 30.01 in. Hg (1016 hPa)
ob: CYDF 201000Z 17005KT 15SM FEW220 07/05 A3001 RMK CI1 CI TR SLP165
cycle: 10

Station Type Date Time Source
CYDF TAF 2019/09/20 08:42 UTC NOAA

TAF CYDF 200738Z 2008/2020 24005KT P6SM SKC
BECMG 2008/2010 24010KT
BECMG 2017/2019 27010G20KT
RMK NXT FCST BY 201400Z

Example: see airport list